sensor_id;sensor_type;location;lat;lon;timestamp;pressure;altitude;pressure_sealevel;temperature;humidity
47913;BME280;33676;51.006;17.180;2023-06-04T00:00:32;100687.53;;;9.70;56.83
47913;BME280;33676;51.006;17.180;2023-06-04T00:03:09;100686.88;;;9.64;57.00
47913;BME280;33676;51.006;17.180;2023-06-04T00:05:37;100689.14;;;9.59;56.83
47913;BME280;33676;51.006;17.180;2023-06-04T00:08:06;100684.02;;;9.54;56.95
47913;BME280;33676;51.006;17.180;2023-06-04T00:10:34;100685.66;;;9.51;57.04
47913;BME280;33676;51.006;17.180;2023-06-04T00:13:03;100681.93;;;9.47;57.11
47913;BME280;33676;51.006;17.180;2023-06-04T00:15:31;100682.73;;;9.43;57.51
47913;BME280;33676;51.006;17.180;2023-06-04T00:18:00;100677.90;;;9.37;57.57
47913;BME280;33676;51.006;17.180;2023-06-04T00:20:28;100675.02;;;9.31;57.82
47913;BME280;33676;51.006;17.180;2023-06-04T00:22:57;100674.69;;;9.25;57.78
47913;BME280;33676;51.006;17.180;2023-06-04T00:25:25;100677.20;;;9.21;58.08
47913;BME280;33676;51.006;17.180;2023-06-04T00:27:54;100680.00;;;9.18;58.11
47913;BME280;33676;51.006;17.180;2023-06-04T00:30:22;100678.60;;;9.16;58.25
47913;BME280;33676;51.006;17.180;2023-06-04T00:32:50;100681.05;;;9.13;58.43
47913;BME280;33676;51.006;17.180;2023-06-04T00:35:19;100675.91;;;9.09;58.44
47913;BME280;33676;51.006;17.180;2023-06-04T00:37:48;100678.59;;;9.05;58.43
47913;BME280;33676;51.006;17.180;2023-06-04T00:40:17;100680.29;;;9.01;58.56
47913;BME280;33676;51.006;17.180;2023-06-04T00:42:46;100682.33;;;8.96;58.94
47913;BME280;33676;51.006;17.180;2023-06-04T00:45:18;100687.18;;;8.91;58.97
47913;BME280;33676;51.006;17.180;2023-06-04T00:47:49;100683.15;;;8.86;59.19
47913;BME280;33676;51.006;17.180;2023-06-04T00:50:19;100677.59;;;8.81;59.38
47913;BME280;33676;51.006;17.180;2023-06-04T00:52:50;100672.70;;;8.76;59.67
47913;BME280;33676;51.006;17.180;2023-06-04T00:55:19;100673.08;;;8.70;59.78
47913;BME280;33676;51.006;17.180;2023-06-04T00:57:48;100672.29;;;8.62;59.80
47913;BME280;33676;51.006;17.180;2023-06-04T01:00:17;100674.75;;;8.57;60.04
47913;BME280;33676;51.006;17.180;2023-06-04T01:02:48;100672.19;;;8.50;60.21
47913;BME280;33676;51.006;17.180;2023-06-04T01:05:43;100673.59;;;8.45;60.37
47913;BME280;33676;51.006;17.180;2023-06-04T01:08:15;100674.91;;;8.38;60.48
47913;BME280;33676;51.006;17.180;2023-06-04T01:10:56;100676.48;;;8.32;60.49
47913;BME280;33676;51.006;17.180;2023-06-04T01:13:24;100676.11;;;8.27;60.71
47913;BME280;33676;51.006;17.180;2023-06-04T01:15:53;100674.73;;;8.21;60.83
47913;BME280;33676;51.006;17.180;2023-06-04T01:18:27;100675.02;;;8.16;60.78
47913;BME280;33676;51.006;17.180;2023-06-04T01:21:06;100674.91;;;8.13;61.04
47913;BME280;33676;51.006;17.180;2023-06-04T01:23:52;100676.72;;;8.08;61.04
47913;BME280;33676;51.006;17.180;2023-06-04T01:26:29;100677.31;;;8.04;61.43
47913;BME280;33676;51.006;17.180;2023-06-04T01:29:00;100677.87;;;8.01;61.61
47913;BME280;33676;51.006;17.180;2023-06-04T01:31:30;100680.49;;;7.98;61.33
47913;BME280;33676;51.006;17.180;2023-06-04T01:34:01;100675.98;;;7.95;61.71
47913;BME280;33676;51.006;17.180;2023-06-04T01:36:30;100675.02;;;7.90;61.82
47913;BME280;33676;51.006;17.180;2023-06-04T01:38:58;100673.40;;;7.86;61.94
47913;BME280;33676;51.006;17.180;2023-06-04T01:41:28;100676.21;;;7.82;61.90
47913;BME280;33676;51.006;17.180;2023-06-04T01:43:57;100673.85;;;7.79;62.23
47913;BME280;33676;51.006;17.180;2023-06-04T01:46:25;100672.30;;;7.76;62.36
47913;BME280;33676;51.006;17.180;2023-06-04T01:48:54;100669.85;;;7.73;62.54
47913;BME280;33676;51.006;17.180;2023-06-04T01:51:22;100669.55;;;7.69;62.57
47913;BME280;33676;51.006;17.180;2023-06-04T01:53:51;100670.09;;;7.66;62.76
47913;BME280;33676;51.006;17.180;2023-06-04T01:56:20;100672.98;;;7.61;62.83
47913;BME280;33676;51.006;17.180;2023-06-04T01:58:49;100671.45;;;7.58;63.02
47913;BME280;33676;51.006;17.180;2023-06-04T02:01:18;100667.32;;;7.54;63.14
47913;BME280;33676;51.006;17.180;2023-06-04T02:03:47;100667.42;;;7.49;63.22
47913;BME280;33676;51.006;17.180;2023-06-04T02:06:16;100673.02;;;7.46;63.33
47913;BME280;33676;51.006;17.180;2023-06-04T02:08:45;100670.99;;;7.42;63.49
47913;BME280;33676;51.006;17.180;2023-06-04T02:11:13;100669.77;;;7.39;63.45
47913;BME280;33676;51.006;17.180;2023-06-04T02:13:42;100668.16;;;7.37;63.69
47913;BME280;33676;51.006;17.180;2023-06-04T02:16:10;100663.86;;;7.36;63.81
47913;BME280;33676;51.006;17.180;2023-06-04T02:18:39;100665.36;;;7.34;63.99
47913;BME280;33676;51.006;17.180;2023-06-04T02:21:08;100670.69;;;7.32;63.84
47913;BME280;33676;51.006;17.180;2023-06-04T02:23:36;100673.30;;;7.29;64.06
47913;BME280;33676;51.006;17.180;2023-06-04T02:26:05;100674.67;;;7.27;64.35
47913;BME280;33676;51.006;17.180;2023-06-04T02:28:34;100674.65;;;7.24;64.50
47913;BME280;33676;51.006;17.180;2023-06-04T02:31:02;100672.87;;;7.22;64.39
47913;BME280;33676;51.006;17.180;2023-06-04T02:33:31;100677.04;;;7.19;64.69
47913;BME280;33676;51.006;17.180;2023-06-04T02:35:59;100672.66;;;7.16;64.60
47913;BME280;33676;51.006;17.180;2023-06-04T02:38:29;100676.05;;;7.15;64.89
47913;BME280;33676;51.006;17.180;2023-06-04T02:40:57;100671.52;;;7.12;64.99
47913;BME280;33676;51.006;17.180;2023-06-04T02:43:26;100677.02;;;7.10;65.02
47913;BME280;33676;51.006;17.180;2023-06-04T02:45:54;100678.48;;;7.09;65.15
47913;BME280;33676;51.006;17.180;2023-06-04T02:48:23;100679.31;;;7.07;65.26
47913;BME280;33676;51.006;17.180;2023-06-04T02:50:51;100683.17;;;7.06;65.48
47913;BME280;33676;51.006;17.180;2023-06-04T02:53:19;100683.09;;;7.04;65.52
47913;BME280;33676;51.006;17.180;2023-06-04T02:55:49;100683.65;;;7.03;65.62
47913;BME280;33676;51.006;17.180;2023-06-04T02:58:20;100684.56;;;7.03;65.65
47913;BME280;33676;51.006;17.180;2023-06-04T03:00:52;100680.77;;;7.03;65.96
47913;BME280;33676;51.006;17.180;2023-06-04T03:03:22;100679.06;;;7.02;65.93
47913;BME280;33676;51.006;17.180;2023-06-04T03:05:50;100682.92;;;7.01;66.26
47913;BME280;33676;51.006;17.180;2023-06-04T03:08:20;100691.56;;;7.02;66.21
47913;BME280;33676;51.006;17.180;2023-06-04T03:10:50;100689.64;;;7.02;66.39
47913;BME280;33676;51.006;17.180;2023-06-04T03:13:19;100683.52;;;7.03;66.33
47913;BME280;33676;51.006;17.180;2023-06-04T03:15:47;100684.02;;;7.03;66.34
47913;BME280;33676;51.006;17.180;2023-06-04T03:18:17;100688.29;;;7.04;66.46
47913;BME280;33676;51.006;17.180;2023-06-04T03:20:46;100691.37;;;7.05;66.58
47913;BME280;33676;51.006;17.180;2023-06-04T03:23:14;100688.84;;;7.07;66.76
47913;BME280;33676;51.006;17.180;2023-06-04T03:25:44;100691.19;;;7.09;66.80
47913;BME280;33676;51.006;17.180;2023-06-04T03:28:12;100699.77;;;7.10;67.09
47913;BME280;33676;51.006;17.180;2023-06-04T03:30:41;100702.31;;;7.12;67.15
47913;BME280;33676;51.006;17.180;2023-06-04T03:33:09;100704.95;;;7.14;67.12
47913;BME280;33676;51.006;17.180;2023-06-04T03:35:40;100705.30;;;7.17;67.30
47913;BME280;33676;51.006;17.180;2023-06-04T03:38:09;100710.66;;;7.21;67.67
47913;BME280;33676;51.006;17.180;2023-06-04T03:40:38;100710.61;;;7.24;67.51
47913;BME280;33676;51.006;17.180;2023-06-04T03:43:06;100709.10;;;7.29;67.65
47913;BME280;33676;51.006;17.180;2023-06-04T03:45:35;100706.89;;;7.35;67.80
47913;BME280;33676;51.006;17.180;2023-06-04T03:48:04;100711.52;;;7.39;67.96
47913;BME280;33676;51.006;17.180;2023-06-04T03:50:34;100708.98;;;7.43;67.82
47913;BME280;33676;51.006;17.180;2023-06-04T03:53:05;100708.98;;;7.50;68.03
47913;BME280;33676;51.006;17.180;2023-06-04T03:55:34;100705.94;;;7.54;68.21
47913;BME280;33676;51.006;17.180;2023-06-04T03:58:02;100709.42;;;7.60;68.31
47913;BME280;33676;51.006;17.180;2023-06-04T04:00:31;100710.09;;;7.66;68.44
47913;BME280;33676;51.006;17.180;2023-06-04T04:02:59;100713.69;;;7.73;68.41
47913;BME280;33676;51.006;17.180;2023-06-04T04:05:28;100712.27;;;7.79;68.59
47913;BME280;33676;51.006;17.180;2023-06-04T04:07:57;100711.31;;;7.86;68.60
47913;BME280;33676;51.006;17.180;2023-06-04T04:10:25;100711.88;;;7.94;68.49
47913;BME280;33676;51.006;17.180;2023-06-04T04:12:54;100714.67;;;8.03;68.84
47913;BME280;33676;51.006;17.180;2023-06-04T04:15:26;100716.06;;;8.12;68.94
47913;BME280;33676;51.006;17.180;2023-06-04T04:17:55;100717.42;;;8.20;68.91
47913;BME280;33676;51.006;17.180;2023-06-04T04:20:24;100720.12;;;8.31;69.07
47913;BME280;33676;51.006;17.180;2023-06-04T04:22:53;100718.47;;;8.40;69.18
47913;BME280;33676;51.006;17.180;2023-06-04T04:25:21;100716.82;;;8.50;69.04
47913;BME280;33676;51.006;17.180;2023-06-04T04:27:50;100721.00;;;8.61;69.24
47913;BME280;33676;51.006;17.180;2023-06-04T04:30:18;100720.38;;;8.71;69.49
47913;BME280;33676;51.006;17.180;2023-06-04T04:32:48;100720.42;;;8.81;69.30
47913;BME280;33676;51.006;17.180;2023-06-04T04:35:17;100718.08;;;8.93;69.40
47913;BME280;33676;51.006;17.180;2023-06-04T04:37:46;100719.45;;;9.04;69.38
47913;BME280;33676;51.006;17.180;2023-06-04T04:40:16;100716.64;;;9.15;69.41
47913;BME280;33676;51.006;17.180;2023-06-04T04:42:44;100709.61;;;9.27;69.50
47913;BME280;33676;51.006;17.180;2023-06-04T04:45:13;100714.02;;;9.39;69.40
47913;BME280;33676;51.006;17.180;2023-06-04T04:47:41;100717.95;;;9.51;69.58
47913;BME280;33676;51.006;17.180;2023-06-04T04:50:10;100716.64;;;9.63;69.50
47913;BME280;33676;51.006;17.180;2023-06-04T04:52:39;100713.11;;;9.73;69.51
47913;BME280;33676;51.006;17.180;2023-06-04T04:55:08;100713.69;;;9.86;69.39
47913;BME280;33676;51.006;17.180;2023-06-04T04:57:36;100717.20;;;9.98;69.44
47913;BME280;33676;51.006;17.180;2023-06-04T05:00:06;100718.84;;;10.10;69.42
47913;BME280;33676;51.006;17.180;2023-06-04T05:02:36;100720.71;;;10.23;69.32
47913;BME280;33676;51.006;17.180;2023-06-04T05:05:06;100723.44;;;10.37;69.31
47913;BME280;33676;51.006;17.180;2023-06-04T05:07:34;100723.20;;;10.50;69.23
47913;BME280;33676;51.006;17.180;2023-06-04T05:10:03;100727.50;;;10.63;69.20
47913;BME280;33676;51.006;17.180;2023-06-04T05:12:32;100728.81;;;10.77;69.15
47913;BME280;33676;51.006;17.180;2023-06-04T05:15:01;100725.61;;;10.89;68.84
47913;BME280;33676;51.006;17.180;2023-06-04T05:17:29;100722.80;;;11.01;68.75
47913;BME280;33676;51.006;17.180;2023-06-04T05:19:59;100720.82;;;11.14;68.60
47913;BME280;33676;51.006;17.180;2023-06-04T05:22:40;100721.55;;;11.28;68.48
47913;BME280;33676;51.006;17.180;2023-06-04T05:25:11;100724.71;;;11.42;68.28
47913;BME280;33676;51.006;17.180;2023-06-04T05:27:40;100727.22;;;11.55;67.98
47913;BME280;33676;51.006;17.180;2023-06-04T05:30:09;100728.80;;;11.69;67.75
47913;BME280;33676;51.006;17.180;2023-06-04T05:32:38;100731.37;;;11.82;67.60
47913;BME280;33676;51.006;17.180;2023-06-04T05:35:09;100728.11;;;11.94;67.45
47913;BME280;33676;51.006;17.180;2023-06-04T05:37:38;100725.37;;;12.07;67.34
47913;BME280;33676;51.006;17.180;2023-06-04T05:40:09;100723.88;;;12.20;67.26
47913;BME280;33676;51.006;17.180;2023-06-04T05:42:38;100720.02;;;12.31;67.09
47913;BME280;33676;51.006;17.180;2023-06-04T05:45:07;100723.51;;;12.42;67.02
47913;BME280;33676;51.006;17.180;2023-06-04T05:47:36;100722.14;;;12.55;66.88
47913;BME280;33676;51.006;17.180;2023-06-04T05:50:06;100721.73;;;12.67;66.70
47913;BME280;33676;51.006;17.180;2023-06-04T05:52:34;100722.26;;;12.78;66.39
47913;BME280;33676;51.006;17.180;2023-06-04T05:55:05;100724.80;;;12.89;66.20
47913;BME280;33676;51.006;17.180;2023-06-04T05:57:38;100729.81;;;13.01;65.97
47913;BME280;33676;51.006;17.180;2023-06-04T06:00:07;100730.61;;;13.13;65.92
47913;BME280;33676;51.006;17.180;2023-06-04T06:02:39;100734.02;;;13.23;65.68
47913;BME280;33676;51.006;17.180;2023-06-04T06:05:08;100725.44;;;13.34;65.61
47913;BME280;33676;51.006;17.180;2023-06-04T06:07:37;100726.96;;;13.45;65.55
47913;BME280;33676;51.006;17.180;2023-06-04T06:10:06;100726.06;;;13.55;65.33
47913;BME280;33676;51.006;17.180;2023-06-04T06:12:35;100726.39;;;13.66;65.26
47913;BME280;33676;51.006;17.180;2023-06-04T06:15:05;100727.85;;;13.78;65.25
47913;BME280;33676;51.006;17.180;2023-06-04T06:17:33;100727.55;;;13.90;65.16
47913;BME280;33676;51.006;17.180;2023-06-04T06:20:02;100725.86;;;14.01;64.72
47913;BME280;33676;51.006;17.180;2023-06-04T06:22:36;100728.35;;;14.13;64.65
47913;BME280;33676;51.006;17.180;2023-06-04T06:25:05;100733.10;;;14.25;64.49
47913;BME280;33676;51.006;17.180;2023-06-04T06:27:35;100735.69;;;14.36;64.15
47913;BME280;33676;51.006;17.180;2023-06-04T06:30:06;100736.11;;;14.46;64.04
47913;BME280;33676;51.006;17.180;2023-06-04T06:32:35;100737.00;;;14.55;63.87
47913;BME280;33676;51.006;17.180;2023-06-04T06:35:04;100736.89;;;14.67;63.73
47913;BME280;33676;51.006;17.180;2023-06-04T06:37:33;100736.98;;;14.76;63.42
47913;BME280;33676;51.006;17.180;2023-06-04T06:40:02;100738.19;;;14.82;63.08
47913;BME280;33676;51.006;17.180;2023-06-04T06:42:34;100740.34;;;14.91;63.23
47913;BME280;33676;51.006;17.180;2023-06-04T06:45:04;100739.87;;;15.03;63.15
47913;BME280;33676;51.006;17.180;2023-06-04T06:47:33;100738.99;;;15.12;63.13
47913;BME280;33676;51.006;17.180;2023-06-04T06:50:02;100740.85;;;15.23;62.97
47913;BME280;33676;51.006;17.180;2023-06-04T06:52:30;100747.82;;;15.36;63.02
47913;BME280;33676;51.006;17.180;2023-06-04T06:57:09;100746.16;;;15.54;62.54
47913;BME280;33676;51.006;17.180;2023-06-04T06:59:37;100743.48;;;15.62;62.52
47913;BME280;33676;51.006;17.180;2023-06-04T07:02:07;100746.76;;;15.72;62.45
47913;BME280;33676;51.006;17.180;2023-06-04T07:04:35;100744.30;;;15.79;62.03
47913;BME280;33676;51.006;17.180;2023-06-04T07:07:05;100743.98;;;15.89;62.09
47913;BME280;33676;51.006;17.180;2023-06-04T07:09:34;100749.97;;;16.02;62.30
47913;BME280;33676;51.006;17.180;2023-06-04T07:12:03;100747.36;;;16.15;62.20
47913;BME280;33676;51.006;17.180;2023-06-04T07:14:33;100745.79;;;16.25;62.06
47913;BME280;33676;51.006;17.180;2023-06-04T07:17:01;100743.89;;;16.36;61.79
47913;BME280;33676;51.006;17.180;2023-06-04T07:19:31;100742.98;;;16.44;61.44
47913;BME280;33676;51.006;17.180;2023-06-04T07:22:00;100746.73;;;16.55;61.49
47913;BME280;33676;51.006;17.180;2023-06-04T07:24:28;100743.31;;;16.63;61.00
47913;BME280;33676;51.006;17.180;2023-06-04T07:26:57;100746.00;;;16.72;60.92
47913;BME280;33676;51.006;17.180;2023-06-04T07:29:25;100745.33;;;16.82;60.79
47913;BME280;33676;51.006;17.180;2023-06-04T07:31:55;100749.85;;;16.92;60.88
47913;BME280;33676;51.006;17.180;2023-06-04T07:34:24;100750.46;;;17.05;60.99
47913;BME280;33676;51.006;17.180;2023-06-04T07:36:53;100752.08;;;17.20;61.11
47913;BME280;33676;51.006;17.180;2023-06-04T07:39:21;100749.23;;;17.34;60.89
47913;BME280;33676;51.006;17.180;2023-06-04T07:41:53;100750.91;;;17.46;60.51
47913;BME280;33676;51.006;17.180;2023-06-04T07:44:22;100752.39;;;17.52;60.16
47913;BME280;33676;51.006;17.180;2023-06-04T07:46:50;100751.20;;;17.64;60.14
47913;BME280;33676;51.006;17.180;2023-06-04T07:49:19;100750.44;;;17.76;60.00
47913;BME280;33676;51.006;17.180;2023-06-04T07:51:48;100749.21;;;17.89;59.89
47913;BME280;33676;51.006;17.180;2023-06-04T07:54:17;100749.62;;;17.99;59.57
47913;BME280;33676;51.006;17.180;2023-06-04T07:56:45;100747.53;;;18.09;59.47
47913;BME280;33676;51.006;17.180;2023-06-04T07:59:14;100742.11;;;18.20;59.29
47913;BME280;33676;51.006;17.180;2023-06-04T08:01:42;100741.60;;;18.32;59.14
47913;BME280;33676;51.006;17.180;2023-06-04T08:04:11;100741.54;;;18.44;59.14
47913;BME280;33676;51.006;17.180;2023-06-04T08:06:40;100739.86;;;18.55;58.89
47913;BME280;33676;51.006;17.180;2023-06-04T08:09:10;100742.49;;;18.66;58.58
47913;BME280;33676;51.006;17.180;2023-06-04T08:11:43;100737.07;;;18.78;58.52
47913;BME280;33676;51.006;17.180;2023-06-04T08:14:13;100735.39;;;18.91;58.33
47913;BME280;33676;51.006;17.180;2023-06-04T08:16:42;100736.84;;;19.01;58.12
47913;BME280;33676;51.006;17.180;2023-06-04T08:19:11;100735.20;;;19.11;58.01
47913;BME280;33676;51.006;17.180;2023-06-04T08:21:39;100733.89;;;19.20;57.63
47913;BME280;33676;51.006;17.180;2023-06-04T08:24:09;100732.52;;;19.28;57.47
47913;BME280;33676;51.006;17.180;2023-06-04T08:26:37;100739.02;;;19.37;57.12
47913;BME280;33676;51.006;17.180;2023-06-04T08:29:06;100738.92;;;19.45;57.15
47913;BME280;33676;51.006;17.180;2023-06-04T08:31:36;100734.53;;;19.59;57.04
47913;BME280;33676;51.006;17.180;2023-06-04T08:34:05;100731.14;;;19.72;56.91
47913;BME280;33676;51.006;17.180;2023-06-04T08:36:33;100733.86;;;19.85;56.63
47913;BME280;33676;51.006;17.180;2023-06-04T08:39:02;100737.27;;;19.98;56.28
47913;BME280;33676;51.006;17.180;2023-06-04T08:41:48;100738.73;;;20.11;56.07
47913;BME280;33676;51.006;17.180;2023-06-04T08:44:17;100741.75;;;20.23;55.86
47913;BME280;33676;51.006;17.180;2023-06-04T08:46:51;100739.77;;;20.36;55.79
47913;BME280;33676;51.006;17.180;2023-06-04T08:49:23;100734.92;;;20.48;55.32
47913;BME280;33676;51.006;17.180;2023-06-04T08:51:52;100735.95;;;20.57;55.08
47913;BME280;33676;51.006;17.180;2023-06-04T08:54:22;100743.64;;;20.69;55.07
47913;BME280;33676;51.006;17.180;2023-06-04T08:56:52;100748.41;;;20.88;55.35
47913;BME280;33676;51.006;17.180;2023-06-04T08:59:21;100749.99;;;21.05;55.18
47913;BME280;33676;51.006;17.180;2023-06-04T09:01:54;100747.78;;;21.20;54.60
47913;BME280;33676;51.006;17.180;2023-06-04T09:04:23;100744.38;;;21.33;54.03
47913;BME280;33676;51.006;17.180;2023-06-04T09:06:53;100742.05;;;21.43;53.80
47913;BME280;33676;51.006;17.180;2023-06-04T09:09:23;100744.99;;;21.56;53.77
47913;BME280;33676;51.006;17.180;2023-06-04T09:11:54;100741.59;;;21.68;53.55
47913;BME280;33676;51.006;17.180;2023-06-04T09:14:23;100727.95;;;21.81;53.33
47913;BME280;33676;51.006;17.180;2023-06-04T09:16:53;100740.86;;;21.96;53.57
47913;BME280;33676;51.006;17.180;2023-06-04T09:19:24;100746.66;;;22.11;53.20
47913;BME280;33676;51.006;17.180;2023-06-04T09:21:54;100746.13;;;22.27;53.15
47913;BME280;33676;51.006;17.180;2023-06-04T09:24:43;100744.45;;;22.41;53.10
47913;BME280;33676;51.006;17.180;2023-06-04T09:27:19;100745.27;;;22.59;52.88
47913;BME280;33676;51.006;17.180;2023-06-04T09:29:58;100744.45;;;22.78;52.96
47913;BME280;33676;51.006;17.180;2023-06-04T09:32:30;100750.07;;;22.97;52.56
47913;BME280;33676;51.006;17.180;2023-06-04T09:35:16;100750.74;;;23.18;52.51
47913;BME280;33676;51.006;17.180;2023-06-04T09:37:55;100750.70;;;23.44;52.17
47913;BME280;33676;51.006;17.180;2023-06-04T09:40:35;100750.66;;;23.58;51.79
47913;BME280;33676;51.006;17.180;2023-06-04T09:43:03;100748.11;;;23.79;51.58
47913;BME280;33676;51.006;17.180;2023-06-04T09:45:35;100744.52;;;23.97;51.07
47913;BME280;33676;51.006;17.180;2023-06-04T09:48:04;100734.16;;;24.12;50.68
47913;BME280;33676;51.006;17.180;2023-06-04T09:50:37;100742.20;;;24.27;50.87
47913;BME280;33676;51.006;17.180;2023-06-04T09:55:44;100742.25;;;24.71;50.14
47913;BME280;33676;51.006;17.180;2023-06-04T09:58:13;100737.07;;;24.88;49.82
47913;BME280;33676;51.006;17.180;2023-06-04T10:00:44;100735.28;;;25.09;49.59
47913;BME280;33676;51.006;17.180;2023-06-04T10:03:14;100732.23;;;25.32;49.40
47913;BME280;33676;51.006;17.180;2023-06-04T10:05:44;100731.57;;;25.51;49.24
47913;BME280;33676;51.006;17.180;2023-06-04T10:08:14;100728.42;;;25.68;48.73
47913;BME280;33676;51.006;17.180;2023-06-04T10:10:45;100726.23;;;25.84;48.47
47913;BME280;33676;51.006;17.180;2023-06-04T10:13:18;100719.96;;;25.99;48.17
47913;BME280;33676;51.006;17.180;2023-06-04T10:15:47;100719.56;;;26.06;47.45
47913;BME280;33676;51.006;17.180;2023-06-04T10:18:15;100717.48;;;26.18;47.57
47913;BME280;33676;51.006;17.180;2023-06-04T10:20:45;100715.50;;;26.45;47.98
47913;BME280;33676;51.006;17.180;2023-06-04T10:23:14;100710.80;;;26.72;47.83
47913;BME280;33676;51.006;17.180;2023-06-04T10:25:42;100711.24;;;26.98;47.72
47913;BME280;33676;51.006;17.180;2023-06-04T10:28:11;100714.14;;;27.21;47.56
47913;BME280;33676;51.006;17.180;2023-06-04T10:30:40;100713.09;;;27.44;47.46
47913;BME280;33676;51.006;17.180;2023-06-04T10:33:08;100714.63;;;27.70;47.25
47913;BME280;33676;51.006;17.180;2023-06-04T10:35:37;100713.46;;;27.89;46.79
47913;BME280;33676;51.006;17.180;2023-06-04T10:38:11;100716.12;;;28.05;46.60
47913;BME280;33676;51.006;17.180;2023-06-04T10:40:40;100715.16;;;28.23;46.25
47913;BME280;33676;51.006;17.180;2023-06-04T10:43:13;100713.36;;;28.42;45.96
47913;BME280;33676;51.006;17.180;2023-06-04T10:45:42;100713.46;;;28.57;45.57
47913;BME280;33676;51.006;17.180;2023-06-04T10:48:13;100711.55;;;28.73;45.39
47913;BME280;33676;51.006;17.180;2023-06-04T10:50:52;100712.54;;;28.94;45.35
47913;BME280;33676;51.006;17.180;2023-06-04T10:53:21;100711.11;;;29.07;44.58
47913;BME280;33676;51.006;17.180;2023-06-04T10:55:50;100705.71;;;29.25;44.81
47913;BME280;33676;51.006;17.180;2023-06-04T10:58:19;100701.34;;;29.50;44.66
47913;BME280;33676;51.006;17.180;2023-06-04T11:00:49;100694.21;;;29.69;44.35
47913;BME280;33676;51.006;17.180;2023-06-04T11:03:18;100697.69;;;29.95;44.55
47913;BME280;33676;51.006;17.180;2023-06-04T11:05:48;100694.03;;;30.18;44.02
47913;BME280;33676;51.006;17.180;2023-06-04T11:08:29;100686.90;;;30.39;43.88
47913;BME280;33676;51.006;17.180;2023-06-04T11:10:58;100687.63;;;30.65;43.66
47913;BME280;33676;51.006;17.180;2023-06-04T11:13:26;100690.98;;;30.84;43.32
47913;BME280;33676;51.006;17.180;2023-06-04T11:15:55;100691.77;;;31.03;43.05
47913;BME280;33676;51.006;17.180;2023-06-04T11:18:24;100688.57;;;31.31;42.86
47913;BME280;33676;51.006;17.180;2023-06-04T11:21:00;100682.73;;;31.58;42.60
47913;BME280;33676;51.006;17.180;2023-06-04T11:23:33;100683.21;;;31.73;42.15
47913;BME280;33676;51.006;17.180;2023-06-04T11:27:07;100680.91;;;32.13;42.14
47913;BME280;33676;51.006;17.180;2023-06-04T11:29:51;100680.33;;;32.44;42.08
47913;BME280;33676;51.006;17.180;2023-06-04T11:32:24;100681.70;;;32.75;42.15
47913;BME280;33676;51.006;17.180;2023-06-04T11:35:03;100679.91;;;33.02;42.15
47913;BME280;33676;51.006;17.180;2023-06-04T11:37:34;100684.14;;;33.37;41.77
47913;BME280;33676;51.006;17.180;2023-06-04T11:40:18;100680.79;;;33.55;41.52
47913;BME280;33676;51.006;17.180;2023-06-04T11:42:48;100684.36;;;33.60;40.97
47913;BME280;33676;51.006;17.180;2023-06-04T11:45:20;100684.64;;;33.77;41.17
47913;BME280;33676;51.006;17.180;2023-06-04T11:47:53;100682.77;;;34.03;40.97
47913;BME280;33676;51.006;17.180;2023-06-04T11:50:28;100680.63;;;34.20;40.71
47913;BME280;33676;51.006;17.180;2023-06-04T11:52:58;100678.66;;;34.43;40.80
47913;BME280;33676;51.006;17.180;2023-06-04T11:55:27;100673.68;;;34.75;40.64
47913;BME280;33676;51.006;17.180;2023-06-04T11:57:56;100676.29;;;35.00;40.16
47913;BME280;33676;51.006;17.180;2023-06-04T12:00:25;100676.45;;;35.10;39.39
47913;BME280;33676;51.006;17.180;2023-06-04T12:02:56;100673.88;;;34.98;38.82
47913;BME280;33676;51.006;17.180;2023-06-04T12:05:30;100676.10;;;34.65;38.30
47913;BME280;33676;51.006;17.180;2023-06-04T12:08:07;100671.84;;;34.43;38.31
47913;BME280;33676;51.006;17.180;2023-06-04T12:10:42;100670.13;;;34.51;38.78
47913;BME280;33676;51.006;17.180;2023-06-04T12:13:11;100664.59;;;34.84;39.12
47913;BME280;33676;51.006;17.180;2023-06-04T12:15:40;100669.48;;;35.08;39.08
47913;BME280;33676;51.006;17.180;2023-06-04T12:18:08;100667.36;;;35.34;39.07
47913;BME280;33676;51.006;17.180;2023-06-04T12:20:40;100667.61;;;35.47;38.36
47913;BME280;33676;51.006;17.180;2023-06-04T12:23:20;100667.50;;;35.51;38.28
47913;BME280;33676;51.006;17.180;2023-06-04T12:25:50;100664.38;;;35.55;37.95
47913;BME280;33676;51.006;17.180;2023-06-04T12:28:19;100663.63;;;35.53;37.44
47913;BME280;33676;51.006;17.180;2023-06-04T12:30:48;100662.09;;;35.61;37.57
47913;BME280;33676;51.006;17.180;2023-06-04T12:33:16;100659.01;;;35.67;36.84
47913;BME280;33676;51.006;17.180;2023-06-04T12:35:45;100659.02;;;34.87;35.37
47913;BME280;33676;51.006;17.180;2023-06-04T12:38:13;100654.06;;;33.98;35.69
47913;BME280;33676;51.006;17.180;2023-06-04T12:40:42;100656.48;;;33.72;36.19
47913;BME280;33676;51.006;17.180;2023-06-04T12:43:10;100661.41;;;33.61;36.61
47913;BME280;33676;51.006;17.180;2023-06-04T12:45:39;100660.84;;;33.50;36.53
47913;BME280;33676;51.006;17.180;2023-06-04T12:48:07;100660.77;;;33.64;36.91
47913;BME280;33676;51.006;17.180;2023-06-04T12:50:36;100658.77;;;34.17;37.48
47913;BME280;33676;51.006;17.180;2023-06-04T12:53:04;100655.91;;;34.75;37.76
47913;BME280;33676;51.006;17.180;2023-06-04T12:55:33;100659.77;;;35.30;37.41
47913;BME280;33676;51.006;17.180;2023-06-04T12:58:01;100655.31;;;35.84;37.53
47913;BME280;33676;51.006;17.180;2023-06-04T13:00:29;100657.50;;;36.39;37.64
47913;BME280;33676;51.006;17.180;2023-06-04T13:02:59;100656.95;;;36.92;37.53